Time;durP1;ratioP1;P1;durP2;ratioP2;P2;SDS_P1;SDS_P2;PMS_P1;PMS_P2;Temp;Humidity;BMP_temperature;BMP_pressure;BME280_temperature;BME280_humidity;BME280_pressure;Samples;Min_cycle;Max_cycle;Signal;HPM_P1;HPM_P2
2021/09/15 00:02:09;;;;;;;6.33;4.27;;;;;;;33.31;47.38;97797.50;5051728;28;20761;-67
2021/09/15 00:04:36;;;;;;;5.57;3.77;;;;;;;33.35;46.77;97804.72;5050707;28;20226;-67
2021/09/15 00:07:04;;;;;;;5.93;4.07;;;;;;;33.23;46.76;97798.41;5051897;28;20202;-67
2021/09/15 00:09:31;;;;;;;7.57;3.90;;;;;;;33.50;45.99;97803.97;5051523;28;20667;-67
2021/09/15 00:11:58;;;;;;;6.83;3.40;;;;;;;33.44;46.41;97810.13;5052132;28;20209;-67
2021/09/15 00:14:26;;;;;;;5.27;4.00;;;;;;;33.52;46.04;97811.94;5051524;28;20221;-68
2021/09/15 00:16:54;;;;;;;6.93;4.10;;;;;;;33.46;46.69;97807.81;5050520;28;20898;-69
2021/09/15 00:19:22;;;;;;;7.37;3.70;;;;;;;33.42;46.04;97806.91;5051679;28;20206;-68
2021/09/15 00:21:49;;;;;;;6.37;3.50;;;;;;;33.45;46.43;97800.66;5051378;28;20206;-68
2021/09/15 00:24:16;;;;;;;7.87;4.03;;;;;;;33.50;46.69;97797.66;5049891;28;20260;-68
2021/09/15 00:26:43;;;;;;;5.53;3.80;;;;;;;33.27;47.68;97785.50;5050840;28;20208;-68
2021/09/15 00:29:11;;;;;;;5.53;3.83;;;;;;;33.07;49.32;97775.44;5051215;28;20686;-68
2021/09/15 00:31:38;;;;;;;4.67;3.77;;;;;;;32.93;49.13;97783.31;5050879;28;20206;-68
2021/09/15 00:34:07;;;;;;;5.10;4.20;;;;;;;33.27;49.20;97788.25;5050788;28;20222;-68
2021/09/15 00:36:34;;;;;;;7.53;4.07;;;;;;;33.21;49.88;97784.16;5050133;28;20229;-68
2021/09/15 00:39:01;;;;;;;6.37;4.30;;;;;;;33.34;49.38;97778.22;5050093;28;20242;-68
2021/09/15 00:41:28;;;;;;;6.47;4.43;;;;;;;32.90;52.17;97768.25;5050586;28;20210;-68
2021/09/15 00:44:01;;;;;;;6.90;4.50;;;;;;;32.93;52.26;97762.00;5050236;28;20218;-68
2021/09/15 00:46:29;;;;;;;4.50;3.90;;;;;;;33.14;51.12;97772.88;5050606;28;20201;-68
2021/09/15 00:48:57;;;;;;;7.53;4.83;;;;;;;33.32;50.41;97763.94;5044266;28;20216;-68
2021/09/15 00:51:25;;;;;;;7.10;4.40;;;;;;;33.37;50.39;97779.47;5052509;28;20210;-68
2021/09/15 00:53:53;;;;;;;5.67;3.67;;;;;;;33.22;50.67;97781.03;5050096;28;20232;-68
2021/09/15 00:56:20;;;;;;;5.33;3.97;;;;;;;33.31;49.89;97775.38;5051483;28;20206;-68
2021/09/15 00:58:47;;;;;;;5.67;4.00;;;;;;;33.39;49.35;97768.88;5050354;28;20678;-68
2021/09/15 01:01:14;;;;;;;6.60;4.23;;;;;;;33.46;47.78;97769.88;5049892;28;20651;-68
2021/09/15 01:03:42;;;;;;;6.00;4.10;;;;;;;33.74;47.32;97761.50;5050146;28;20238;-68
2021/09/15 01:06:09;;;;;;;5.20;4.07;;;;;;;33.70;46.50;97764.16;5050193;28;20217;-68
2021/09/15 01:08:39;;;;;;;5.57;4.27;;;;;;;33.38;47.89;97765.31;5050841;28;20213;-68
2021/09/15 01:11:06;;;;;;;6.30;4.57;;;;;;;33.78;46.43;97757.69;5048042;28;20222;-68
2021/09/15 01:13:34;;;;;;;7.43;3.77;;;;;;;33.65;46.95;97758.13;5048695;28;20597;-68
2021/09/15 01:16:01;;;;;;;5.73;3.60;;;;;;;33.75;47.13;97763.13;5050637;28;20210;-68
2021/09/15 01:18:28;;;;;;;4.73;4.00;;;;;;;33.85;46.67;97760.63;5051026;28;20225;-68
2021/09/15 01:20:57;;;;;;;5.60;4.07;;;;;;;33.90;46.59;97765.13;5050964;28;20218;-68
2021/09/15 01:23:24;;;;;;;6.33;4.13;;;;;;;33.90;46.84;97763.13;5050201;28;20241;-68
2021/09/15 01:25:52;;;;;;;6.27;4.30;;;;;;;33.99;46.42;97760.19;5042453;28;20198;-68
2021/09/15 01:28:19;;;;;;;6.73;4.37;;;;;;;34.11;46.17;97751.78;5049714;28;20209;-68
2021/09/15 01:30:47;;;;;;;4.40;3.83;;;;;;;33.78;47.07;97752.16;5050215;28;20206;-68
2021/09/15 01:33:16;;;;;;;5.60;3.90;;;;;;;33.89;46.65;97747.69;5050227;28;20229;-68
2021/09/15 01:35:44;;;;;;;4.53;3.83;;;;;;;33.81;46.35;97750.63;5050633;28;20693;-68
2021/09/15 01:38:13;;;;;;;5.93;4.03;;;;;;;33.83;46.17;97751.88;5049913;28;20230;-68
2021/09/15 01:40:41;;;;;;;7.93;4.77;;;;;;;33.87;45.83;97747.25;5050606;28;20650;-68
2021/09/15 01:43:08;;;;;;;6.40;4.30;;;;;;;34.06;45.09;97743.75;5049038;28;20226;-68
2021/09/15 01:45:36;;;;;;;7.67;4.40;;;;;;;33.90;45.01;97745.72;5050347;28;20206;-69
2021/09/15 01:48:03;;;;;;;4.27;3.87;;;;;;;33.99;44.56;97743.56;5050277;28;20202;-68
2021/09/15 01:50:30;;;;;;;8.03;4.30;;;;;;;34.23;43.74;97743.34;5050404;28;20202;-68
2021/09/15 01:52:58;;;;;;;6.37;4.00;;;;;;;34.25;43.70;97739.06;5050068;28;20217;-68
2021/09/15 01:55:29;;;;;;;7.03;4.60;;;;;;;34.31;43.48;97739.63;5050007;28;20221;-68
2021/09/15 01:57:56;;;;;;;5.23;3.97;;;;;;;33.88;44.00;97742.50;5048302;28;20221;-68
2021/09/15 02:00:23;;;;;;;6.67;4.33;;;;;;;34.00;44.54;97728.56;5050399;28;20303;-68
2021/09/15 02:02:51;;;;;;;7.13;4.23;;;;;;;33.57;45.22;97725.84;5047909;28;20230;-68
2021/09/15 02:05:18;;;;;;;6.07;4.20;;;;;;;32.99;47.23;97723.88;5050258;28;20202;-68
2021/09/15 02:07:46;;;;;;;5.90;4.70;;;;;;;33.80;44.85;97724.91;5049750;28;20194;-68
2021/09/15 02:10:14;;;;;;;7.67;4.37;;;;;;;33.77;44.68;97722.84;5049183;28;20224;-68
2021/09/15 02:12:42;;;;;;;10.47;5.00;;;;;;;33.62;45.09;97725.59;5047969;28;20202;-68
2021/09/15 02:15:12;;;;;;;6.33;4.00;;;;;;;33.61;45.16;97718.44;5052416;28;20724;-68
2021/09/15 02:17:39;;;;;;;4.40;4.00;;;;;;;33.53;45.17;97722.19;5054371;28;20223;-68
2021/09/15 02:20:09;;;;;;;5.70;4.37;;;;;;;33.45;45.26;97723.19;5053670;28;20210;-68
2021/09/15 02:22:37;;;;;;;7.13;4.33;;;;;;;32.79;47.28;97719.34;5053311;28;20316;-68
2021/09/15 02:25:05;;;;;;;5.63;4.27;;;;;;;33.08;45.64;97710.66;5052104;28;20230;-68
2021/09/15 02:27:32;;;;;;;6.80;4.23;;;;;;;32.62;47.52;97708.53;5057360;28;20209;-68
2021/09/15 02:30:01;;;;;;;8.93;4.50;;;;;;;33.39;45.63;97708.00;5053533;28;20217;-68
2021/09/15 02:32:28;;;;;;;11.83;4.57;;;;;;;33.05;46.59;97716.91;5055619;28;20210;-68
2021/09/15 02:34:55;;;;;;;5.50;4.20;;;;;;;33.06;46.40;97724.06;5054524;28;20233;-68
2021/09/15 02:37:22;;;;;;;5.53;4.00;;;;;;;33.14;45.85;97720.34;5054466;28;20230;-68
2021/09/15 02:39:50;;;;;;;5.93;4.30;;;;;;;33.32;45.39;97716.91;5051793;28;20217;-68
2021/09/15 02:42:17;;;;;;;7.77;3.90;;;;;;;32.65;46.41;97716.13;5053740;28;20206;-68
2021/09/15 02:44:44;;;;;;;4.70;4.10;;;;;;;33.53;44.83;97713.88;5053116;28;20221;-68
2021/09/15 02:47:13;;;;;;;9.13;4.03;;;;;;;33.19;45.92;97709.00;5052951;28;20207;-68
2021/09/15 02:49:40;;;;;;;5.50;4.33;;;;;;;32.80;46.63;97701.59;5052903;28;20210;-68
2021/09/15 02:52:07;;;;;;;6.07;4.30;;;;;;;33.35;45.31;97707.88;5052993;28;20224;-68
2021/09/15 02:54:35;;;;;;;7.13;4.57;;;;;;;33.35;45.23;97716.19;5051751;28;20308;-68
2021/09/15 02:57:02;;;;;;;4.93;4.20;;;;;;;33.20;45.83;97713.38;5053057;28;20206;-68
2021/09/15 02:59:29;;;;;;;9.07;4.43;;;;;;;33.25;45.57;97710.34;5052971;28;20210;-68
2021/09/15 03:01:56;;;;;;;5.70;4.40;;;;;;;33.04;45.68;97713.34;5052153;28;20696;-68
2021/09/15 03:04:25;;;;;;;6.23;3.87;;;;;;;33.10;45.49;97711.91;5052603;28;20233;-68
2021/09/15 03:06:52;;;;;;;5.50;4.10;;;;;;;33.51;44.75;97708.72;5048351;28;20210;-68
2021/09/15 03:09:20;;;;;;;5.23;4.37;;;;;;;33.54;44.35;97708.00;5053194;28;20240;-68
2021/09/15 03:11:47;;;;;;;8.43;4.20;;;;;;;33.64;44.17;97706.69;5051633;28;20202;-68
2021/09/15 03:14:14;;;;;;;6.63;4.10;;;;;;;33.14;45.59;97714.81;5052612;28;20226;-68
2021/09/15 03:16:41;;;;;;;7.00;4.17;;;;;;;33.61;44.14;97708.19;5052408;28;20218;-69
2021/09/15 03:19:09;;;;;;;5.13;4.23;;;;;;;33.48;44.76;97705.84;5052838;28;20227;-69
2021/09/15 03:21:39;;;;;;;6.33;4.63;;;;;;;33.51;44.55;97714.25;5053928;28;20202;-69
2021/09/15 03:24:06;;;;;;;7.97;4.70;;;;;;;33.65;43.83;97703.53;5054462;28;20277;-69
2021/09/15 03:26:33;;;;;;;7.30;4.70;;;;;;;33.83;43.53;97704.81;5051749;28;20215;-69
2021/09/15 03:29:01;;;;;;;8.33;4.20;;;;;;;33.55;43.84;97708.81;5052183;28;20207;-68
2021/09/15 03:31:28;;;;;;;4.80;4.17;;;;;;;33.65;44.24;97699.97;5051966;28;20222;-69
2021/09/15 03:33:55;;;;;;;5.07;4.40;;;;;;;33.68;44.09;97704.78;5051590;28;20574;-69
2021/09/15 03:36:22;;;;;;;5.47;3.73;;;;;;;33.68;44.24;97702.81;5052523;28;20212;-69
2021/09/15 03:38:51;;;;;;;5.10;4.00;;;;;;;33.69;44.85;97703.63;5052019;28;20248;-68
2021/09/15 03:41:18;;;;;;;6.57;4.27;;;;;;;33.89;43.97;97703.38;5052391;28;20578;-69
2021/09/15 03:43:46;;;;;;;6.57;4.30;;;;;;;33.58;45.23;97706.13;5052076;28;20226;-69
2021/09/15 03:46:13;;;;;;;5.33;4.10;;;;;;;33.48;46.10;97698.34;5051881;28;20209;-69
2021/09/15 03:48:40;;;;;;;5.17;4.43;;;;;;;33.02;48.16;97685.25;5052384;28;20205;-69
2021/09/15 03:51:07;;;;;;;6.77;4.23;;;;;;;33.16;47.97;97679.28;5050328;28;20287;-69
2021/09/15 03:53:35;;;;;;;6.43;4.43;;;;;;;33.66;46.17;97685.75;5051472;28;20253;-69
2021/09/15 03:56:04;;;;;;;6.20;4.33;;;;;;;33.62;46.30;97682.13;5051712;28;20206;-69
2021/09/15 03:58:31;;;;;;;6.37;4.70;;;;;;;33.72;46.12;97683.53;5051711;28;20232;-69
2021/09/15 04:00:58;;;;;;;6.67;4.63;;;;;;;33.56;46.87;97685.50;5051294;28;20202;-69
2021/09/15 04:03:26;;;;;;;9.83;4.80;;;;;;;33.24;48.10;97684.63;5051424;28;20225;-69
2021/09/15 04:05:53;;;;;;;6.33;4.53;;;;;;;33.38;48.07;97678.69;5056164;28;20198;-69
2021/09/15 04:08:20;;;;;;;6.57;4.90;;;;;;;33.25;48.78;97674.41;5053536;28;20206;-69
2021/09/15 04:10:47;;;;;;;7.00;4.20;;;;;;;33.01;50.58;97666.22;5053520;28;20205;-69
2021/09/15 04:13:16;;;;;;;6.87;4.47;;;;;;;32.93;51.01;97681.00;5052026;28;20222;-69
2021/09/15 04:15:43;;;;;;;7.43;4.70;;;;;;;33.04;50.40;97685.69;5052206;28;20209;-69
2021/09/15 04:18:12;;;;;;;9.50;5.20;;;;;;;32.75;51.78;97687.97;5049714;28;20225;-70
2021/09/15 04:20:40;;;;;;;8.60;4.70;;;;;;;32.75;51.70;97686.03;5050524;28;20423;-67
2021/09/15 04:23:16;;;;;;;8.67;5.23;;;;;;;32.51;53.25;97686.13;5050721;28;20210;-67
2021/09/15 04:31:19;;;;;;;5.20;4.37;;;;;;;33.00;51.71;97695.84;5051168;28;20221;-67
2021/09/15 04:33:46;;;;;;;5.53;4.77;;;;;;;32.76;52.66;97686.81;5050294;28;20275;-67
2021/09/15 04:36:14;;;;;;;7.37;4.90;;;;;;;32.92;52.20;97694.03;5051274;28;20225;-67
2021/09/15 04:38:41;;;;;;;7.33;4.70;;;;;;;32.88;52.62;97692.34;5051446;28;20226;-67
2021/09/15 04:41:08;;;;;;;4.90;4.37;;;;;;;32.89;52.90;97702.25;5051151;28;20762;-67
2021/09/15 04:43:37;;;;;;;7.47;5.20;;;;;;;32.33;54.17;97695.03;5050461;28;20240;-67
2021/09/15 04:46:04;;;;;;;8.03;4.40;;;;;;;32.70;53.71;97705.63;5050033;28;20224;-67
2021/09/15 04:48:31;;;;;;;5.57;4.97;;;;;;;32.55;54.41;97703.63;5059028;28;20204;-67
2021/09/15 04:50:59;;;;;;;6.27;4.70;;;;;;;32.64;54.01;97709.00;5051230;28;20206;-74
2021/09/15 04:53:26;;;;;;;8.63;5.23;;;;;;;32.71;53.87;97706.41;5060096;28;20250;-67
2021/09/15 04:55:53;;;;;;;6.07;4.80;;;;;;;32.60;53.98;97710.84;5051473;28;20229;-67
2021/09/15 04:58:20;;;;;;;8.03;5.30;;;;;;;31.94;58.36;97704.03;5051032;28;20225;-69
2021/09/15 05:00:49;;;;;;;7.30;5.43;;;;;;;32.60;54.95;97713.59;5051130;28;20206;-71
2021/09/15 05:03:16;;;;;;;7.40;5.20;;;;;;;32.70;54.34;97730.50;5051027;28;20252;-71
2021/09/15 05:05:44;;;;;;;6.37;4.67;;;;;;;32.76;54.00;97734.63;5048762;28;20198;-69
2021/09/15 05:08:11;;;;;;;5.63;4.23;;;;;;;32.71;53.45;97734.06;5048560;28;20214;-67
2021/09/15 05:10:39;;;;;;;6.50;4.50;;;;;;;32.04;56.18;97732.00;5048423;28;20260;-68
2021/09/15 05:13:06;;;;;;;6.20;3.97;;;;;;;31.38;57.28;97727.78;5051236;28;20206;-68
2021/09/15 05:15:33;;;;;;;7.20;4.47;;;;;;;32.21;56.05;97739.19;5051316;28;20210;-68
2021/09/15 05:18:02;;;;;;;6.93;4.10;;;;;;;31.36;59.22;97741.06;5051010;28;20221;-68
2021/09/15 05:20:29;;;;;;;6.47;4.80;;;;;;;31.03;59.88;97736.69;5050427;28;20206;-68
2021/09/15 05:22:56;;;;;;;7.47;4.80;;;;;;;31.17;60.92;97734.44;5052744;28;20205;-68
2021/09/15 05:25:25;;;;;;;8.50;5.10;;;;;;;31.04;62.20;97725.34;5051013;28;20201;-68
2021/09/15 05:27:52;;;;;;;7.50;4.97;;;;;;;31.26;61.76;97727.72;5046518;28;20676;-68
2021/09/15 05:30:20;;;;;;;7.67;4.47;;;;;;;31.49;60.66;97728.13;5050870;28;20206;-68
2021/09/15 05:32:47;;;;;;;7.90;4.57;;;;;;;31.80;60.02;97729.22;5051159;28;20666;-68
2021/09/15 05:35:16;;;;;;;7.80;4.47;;;;;;;31.61;60.72;97731.69;5057936;28;20226;-68
2021/09/15 05:37:44;;;;;;;10.93;5.40;;;;;;;31.89;60.17;97729.91;5047931;28;20205;-68
2021/09/15 05:40:12;;;;;;;6.97;5.00;;;;;;;31.77;59.55;97729.91;5050339;28;20666;-68
2021/09/15 05:42:39;;;;;;;8.70;5.03;;;;;;;31.90;61.35;97723.25;5050765;28;20570;-68
2021/09/15 05:45:08;;;;;;;7.33;4.63;;;;;;;31.82;60.19;97724.16;5045107;28;20221;-69
2021/09/15 05:47:35;;;;;;;7.77;5.30;;;;;;;31.89;61.86;97727.16;5051215;28;20670;-68
2021/09/15 05:50:03;;;;;;;7.87;5.30;;;;;;;31.97;60.47;97731.75;5052933;28;20198;-69
2021/09/15 05:52:32;;;;;;;6.03;5.23;;;;;;;32.28;59.93;97728.44;5063338;28;20208;-69
2021/09/15 05:54:59;;;;;;;6.97;4.80;;;;;;;32.34;61.01;97727.03;5047560;28;20729;-70
2021/09/15 05:57:26;;;;;;;7.97;4.87;;;;;;;32.13;59.06;97742.91;5055048;28;20598;-70
2021/09/15 05:59:54;;;;;;;9.10;5.17;;;;;;;32.23;60.06;97739.69;5054437;28;20230;-71
2021/09/15 06:02:21;;;;;;;7.97;4.80;;;;;;;32.29;60.49;97747.38;5054296;28;20210;-70
2021/09/15 06:04:48;;;;;;;7.83;4.90;;;;;;;32.27;60.50;97738.66;5053450;28;20228;-69
2021/09/15 06:07:15;;;;;;;7.37;4.93;;;;;;;32.56;59.46;97749.44;5057772;28;20706;-69
2021/09/15 06:09:44;;;;;;;11.60;5.30;;;;;;;31.78;61.42;97742.53;5053990;28;20204;-71
2021/09/15 06:12:11;;;;;;;6.87;4.83;;;;;;;31.12;62.73;97745.69;5054223;28;20221;-68
2021/09/15 06:14:39;;;;;;;8.30;5.40;;;;;;;31.79;61.61;97741.41;5054111;28;20236;-70
2021/09/15 06:17:07;;;;;;;9.90;5.37;;;;;;;32.01;62.63;97742.91;5051415;28;20676;-68
2021/09/15 06:19:34;;;;;;;8.57;5.50;;;;;;;31.80;62.80;97747.72;5053375;28;20775;-68
2021/09/15 06:22:01;;;;;;;10.43;5.07;;;;;;;30.74;65.92;97745.06;5060824;28;20216;-70
2021/09/15 06:24:28;;;;;;;11.83;5.90;;;;;;;31.60;63.93;97749.41;5053281;28;20237;-68
2021/09/15 06:26:57;;;;;;;8.70;5.30;;;;;;;31.89;61.87;97751.19;5051550;28;20202;-69
2021/09/15 06:29:25;;;;;;;6.83;5.13;;;;;;;31.68;63.35;97734.69;5052952;28;20297;-70
2021/09/15 06:31:52;;;;;;;8.87;5.43;;;;;;;31.55;63.83;97744.13;5054104;28;20205;-69
2021/09/15 06:34:19;;;;;;;8.27;5.30;;;;;;;30.56;68.96;97740.81;5053460;28;20245;-69
2021/09/15 06:36:47;;;;;;;8.97;5.40;;;;;;;31.32;64.22;97742.91;5051251;28;20673;-69
2021/09/15 06:39:14;;;;;;;8.00;5.50;;;;;;;31.88;63.08;97739.31;5054029;28;20794;-70
2021/09/15 06:41:42;;;;;;;7.90;5.43;;;;;;;31.27;65.84;97736.81;5051587;28;20202;-71
2021/09/15 06:44:11;;;;;;;8.50;5.20;;;;;;;31.67;63.43;97732.28;5053606;28;20751;-70
2021/09/15 06:46:38;;;;;;;6.93;5.03;;;;;;;31.46;62.33;97746.16;5053510;28;20224;-71
2021/09/15 06:49:05;;;;;;;9.10;5.57;;;;;;;31.64;62.81;97744.00;5053195;28;20206;-70
2021/09/15 06:51:33;;;;;;;10.60;5.37;;;;;;;31.72;61.96;97748.63;5053403;28;20273;-68
2021/09/15 06:54:00;;;;;;;7.80;5.30;;;;;;;32.17;60.97;97743.84;5053907;28;20675;-68
2021/09/15 06:56:27;;;;;;;9.57;5.40;;;;;;;32.36;60.36;97733.00;5053287;28;20201;-69
2021/09/15 06:58:54;;;;;;;8.53;5.10;;;;;;;31.97;62.18;97726.22;5053679;28;20222;-68
2021/09/15 07:01:24;;;;;;;7.47;5.30;;;;;;;32.16;59.73;97723.69;5051564;28;20206;-68
2021/09/15 07:03:52;;;;;;;14.07;5.10;;;;;;;31.98;60.06;97727.81;5051167;28;20264;-68
2021/09/15 07:06:19;;;;;;;10.60;5.17;;;;;;;32.29;59.90;97730.81;5053221;28;20210;-68
2021/09/15 07:08:46;;;;;;;6.57;4.60;;;;;;;31.43;62.82;97716.50;5053668;28;20198;-70
2021/09/15 07:11:13;;;;;;;6.83;4.53;;;;;;;31.34;63.75;97706.72;5053489;28;20209;-68
2021/09/15 07:13:41;;;;;;;9.63;5.30;;;;;;;31.68;63.06;97700.78;5052938;28;20234;-68
2021/09/15 07:16:08;;;;;;;6.63;4.37;;;;;;;32.06;59.73;97709.53;5052479;28;20212;-68
2021/09/15 07:18:37;;;;;;;9.00;5.13;;;;;;;32.49;58.77;97706.97;5052393;28;20749;-68
2021/09/15 07:21:04;;;;;;;10.27;5.60;;;;;;;32.31;60.44;97711.13;5053145;28;20210;-68
2021/09/15 07:23:31;;;;;;;10.33;4.93;;;;;;;32.18;61.67;97721.38;5052566;28;20237;-68
2021/09/15 07:25:59;;;;;;;8.00;5.10;;;;;;;32.61;59.02;97729.84;5053082;28;20675;-71
2021/09/15 07:28:26;;;;;;;7.50;4.97;;;;;;;32.95;58.05;97734.81;5052405;28;20233;-68
2021/09/15 07:30:53;;;;;;;13.87;5.27;;;;;;;31.75;61.45;97714.84;5051996;28;20202;-70
2021/09/15 07:33:20;;;;;;;14.17;5.63;;;;;;;32.31;62.57;97720.25;5052281;28;20229;-70
2021/09/15 07:35:49;;;;;;;18.70;5.20;;;;;;;32.41;61.38;97719.75;5053148;28;20198;-70
2021/09/15 07:38:17;;;;;;;6.20;4.10;;;;;;;32.03;59.48;97730.34;5053015;28;20293;-70
2021/09/15 07:40:44;;;;;;;7.20;3.83;;;;;;;32.03;59.75;97735.88;5053451;28;20198;-69
2021/09/15 07:43:11;;;;;;;10.10;4.57;;;;;;;32.14;59.19;97745.34;5052041;28;20225;-70
2021/09/15 07:45:39;;;;;;;8.17;3.80;;;;;;;32.46;57.91;97743.56;5051569;28;20211;-70
2021/09/15 07:48:06;;;;;;;7.23;3.60;;;;;;;31.97;60.55;97747.53;5052767;28;20212;-68
2021/09/15 07:50:33;;;;;;;8.13;3.53;;;;;;;32.53;57.92;97746.56;5052950;28;20206;-67
2021/09/15 07:53:02;;;;;;;6.70;3.53;;;;;;;32.40;56.82;97736.69;5051967;28;20891;-67
2021/09/15 07:55:29;;;;;;;10.53;3.33;;;;;;;32.84;55.24;97742.00;5049430;28;20579;-67
2021/09/15 07:57:56;;;;;;;6.43;3.40;;;;;;;32.58;58.16;97732.50;5050838;28;20213;-67
2021/09/15 08:00:24;;;;;;;7.90;3.23;;;;;;;32.39;57.24;97729.56;5052273;28;20233;-68
2021/09/15 08:02:51;;;;;;;4.87;3.77;;;;;;;32.84;56.18;97736.47;5051910;28;20210;-68
2021/09/15 08:05:18;;;;;;;10.83;3.37;;;;;;;33.43;53.99;97748.44;5047703;28;20666;-69
2021/09/15 08:07:46;;;;;;;8.60;3.47;;;;;;;33.10;54.49;97767.22;5052215;28;20209;-69
2021/09/15 08:10:14;;;;;;;5.37;3.13;;;;;;;32.98;54.57;97772.00;5051795;28;20208;-68
2021/09/15 08:12:42;;;;;;;6.90;3.40;;;;;;;33.40;52.95;97776.03;5050783;28;20215;-68
2021/09/15 08:15:10;;;;;;;4.90;3.10;;;;;;;32.78;54.73;97781.31;5053746;28;20233;-68
2021/09/15 08:17:38;;;;;;;8.60;3.23;;;;;;;32.68;55.25;97782.56;5060645;28;20306;-69
2021/09/15 08:20:06;;;;;;;5.60;3.10;;;;;;;33.30;53.84;97788.38;5051718;28;20654;-68
2021/09/15 08:22:34;;;;;;;5.70;3.13;;;;;;;33.22;54.14;97780.22;5051884;28;20210;-69
2021/09/15 08:25:02;;;;;;;5.47;3.33;;;;;;;32.98;54.35;97783.06;5051402;28;20231;-67
2021/09/15 08:27:31;;;;;;;8.47;3.80;;;;;;;33.19;54.16;97781.72;5050875;28;20213;-69
2021/09/15 08:29:59;;;;;;;5.73;3.73;;;;;;;33.34;53.34;97792.06;5051421;28;20202;-69
2021/09/15 08:32:26;;;;;;;4.97;3.07;;;;;;;32.92;54.78;97790.00;5051728;28;20207;-68
2021/09/15 08:34:53;;;;;;;4.70;3.30;;;;;;;33.02;53.64;97804.16;5048583;28;20229;-68
2021/09/15 08:37:20;;;;;;;6.00;3.07;;;;;;;33.19;53.42;97808.59;5051338;28;20212;-68
2021/09/15 08:39:48;;;;;;;6.50;3.20;;;;;;;33.56;52.61;97821.13;5051153;28;20231;-67
2021/09/15 08:42:15;;;;;;;6.60;3.70;;;;;;;31.95;57.52;97816.06;5051752;28;20228;-69
2021/09/15 08:44:44;;;;;;;8.67;3.53;;;;;;;32.01;61.09;97798.13;5050034;28;20222;-69
2021/09/15 08:47:11;;;;;;;9.07;3.80;;;;;;;32.19;60.09;97805.03;5051188;28;20587;-68
2021/09/15 08:49:39;;;;;;;7.30;3.23;;;;;;;32.03;61.33;97785.59;5051477;28;20576;-69
2021/09/15 08:52:06;;;;;;;8.77;3.83;;;;;;;32.28;58.31;97794.72;5051059;28;20221;-68
2021/09/15 08:54:34;;;;;;;7.30;3.67;;;;;;;32.81;57.88;97806.31;5050783;28;20229;-69
2021/09/15 08:57:01;;;;;;;12.10;4.37;;;;;;;31.92;60.98;97806.53;5051572;28;20199;-69
2021/09/15 08:59:28;;;;;;;5.60;3.70;;;;;;;32.49;57.57;97804.47;5048892;28;20698;-69
2021/09/15 09:02:08;;;;;;;5.93;4.07;;;;;;;30.98;63.68;97778.25;5051049;28;20206;-70
2021/09/15 09:04:54;;;;;;;6.53;3.90;;;;;;;32.57;59.38;97800.78;5049571;28;20230;-69
2021/09/15 09:07:22;;;;;;;8.53;4.10;;;;;;;31.81;60.11;97794.31;5053467;28;20217;-65
2021/09/15 09:09:50;;;;;;;6.80;3.57;;;;;;;32.27;57.47;97807.72;5049706;28;20655;-66
2021/09/15 09:12:18;;;;;;;6.33;3.63;;;;;;;32.88;56.06;97797.41;5051695;28;20240;-75
2021/09/15 09:14:46;;;;;;;5.47;3.90;;;;;;;32.49;56.84;97804.47;5052891;28;20229;-66
2021/09/15 09:17:29;;;;;;;6.93;4.60;;;;;;;32.38;56.20;97808.06;5053549;28;20685;-65
2021/09/15 09:20:20;;;;;;;6.23;3.53;;;;;;;31.30;61.43;97797.63;5047359;28;20221;-66
2021/09/15 09:23:08;;;;;;;3.87;3.40;;;;;;;31.79;60.41;97798.56;5062368;28;20846;-65
2021/09/15 09:25:38;;;;;;;11.63;3.87;;;;;;;32.25;59.72;97800.91;5052138;28;20209;-66
2021/09/15 09:28:18;;;;;;;6.23;3.60;;;;;;;30.70;64.00;97799.25;5055020;28;20757;-66
2021/09/15 09:30:45;;;;;;;7.17;3.50;;;;;;;31.78;61.56;97808.00;5055012;28;20205;-66
2021/09/15 09:33:14;;;;;;;6.10;3.53;;;;;;;31.21;64.04;97793.34;5054661;28;20229;-66
2021/09/15 09:35:43;;;;;;;7.57;3.60;;;;;;;31.22;63.50;97795.72;5053903;28;20206;-67
2021/09/15 09:38:32;;;;;;;6.50;3.60;;;;;;;31.20;62.14;97791.69;5054897;28;20206;-67
2021/09/15 09:41:03;;;;;;;5.00;3.67;;;;;;;31.25;60.80;97797.81;5049620;28;20225;-67
2021/09/15 09:43:32;;;;;;;6.67;3.43;;;;;;;31.76;59.29;97800.06;5054515;28;20229;-67
2021/09/15 09:45:59;;;;;;;5.93;3.27;;;;;;;31.69;57.76;97797.03;5054097;28;20228;-66
2021/09/15 09:48:37;;;;;;;6.97;3.60;;;;;;;31.99;58.69;97792.97;5057744;28;20206;-67
2021/09/15 09:51:06;;;;;;;8.13;3.70;;;;;;;31.96;59.81;97793.66;5059481;28;20212;-67
2021/09/15 09:53:33;;;;;;;6.67;2.87;;;;;;;32.70;56.12;97807.09;5052696;28;20225;-66
2021/09/15 09:56:00;;;;;;;4.87;3.37;;;;;;;32.52;55.56;97803.78;5055076;28;20209;-66
2021/09/15 09:58:29;;;;;;;3.50;2.83;;;;;;;32.66;54.34;97815.28;5054785;28;20206;-66
2021/09/15 10:00:57;;;;;;;4.73;3.00;;;;;;;33.34;53.45;97805.91;5054109;28;20271;-67
2021/09/15 10:03:25;;;;;;;12.73;3.30;;;;;;;33.19;53.91;97803.06;5054289;28;20236;-67
2021/09/15 10:05:54;;;;;;;4.90;3.00;;;;;;;32.97;54.39;97809.94;5053764;28;20203;-67
2021/09/15 10:08:22;;;;;;;5.20;2.70;;;;;;;33.15;55.23;97804.94;5053879;28;20213;-65
2021/09/15 10:10:50;;;;;;;6.40;3.10;;;;;;;33.74;52.48;97812.16;5054898;28;20226;-66
2021/09/15 10:13:18;;;;;;;4.97;3.27;;;;;;;32.97;55.20;97806.34;5054139;28;20736;-70
2021/09/15 10:15:51;;;;;;;6.20;3.00;;;;;;;34.36;50.66;97805.88;5054775;28;20208;-69
2021/09/15 10:18:20;;;;;;;5.50;2.92;;;;;;;34.45;50.44;97804.50;5050843;28;20668;-66
2021/09/15 10:20:49;;;;;;;4.40;3.03;;;;;;;34.27;50.62;97796.91;5052704;28;20224;-65
2021/09/15 10:23:38;;;;;;;4.57;2.83;;;;;;;33.92;52.92;97798.78;5060818;28;20233;-68
2021/09/15 10:26:42;;;;;;;5.17;2.73;;;;;;;35.21;47.64;97814.91;5048151;28;20209;-66
2021/09/15 10:29:24;;;;;;;5.95;3.15;;;;;;;33.67;53.65;97791.75;5054700;28;20568;-70
2021/09/15 10:32:00;;;;;;;5.03;3.03;;;;;;;33.64;52.99;97798.81;5049065;28;20580;-68
2021/09/15 10:34:47;;;;;;;4.17;2.70;;;;;;;33.16;54.51;97789.94;5052426;28;20236;-69
2021/09/15 10:37:59;;;;;;;5.40;3.00;;;;;;;34.77;49.51;97798.91;5054140;28;20657;-69
2021/09/15 10:40:33;;;;;;;4.43;2.70;;;;;;;35.32;47.33;97810.44;5056628;28;20582;-72
2021/09/15 10:43:00;;;;;;;5.47;3.08;;;;;;;34.89;50.15;97801.56;5052433;28;20210;-70
2021/09/15 10:45:29;;;;;;;5.93;3.17;;;;;;;34.49;49.13;97805.38;5053366;28;20222;-72
2021/09/15 10:47:59;;;;;;;5.28;3.05;;;;;;;34.38;48.43;97811.06;5054422;28;20625;-70
2021/09/15 10:50:52;;;;;;;5.65;2.83;;;;;;;34.70;49.97;97799.50;5053731;28;20206;-73
2021/09/15 10:53:22;;;;;;;7.30;3.15;;;;;;;34.14;51.77;97784.28;5053330;28;20706;-72
2021/09/15 10:55:53;;;;;;;5.60;3.17;;;;;;;34.52;49.98;97792.78;5055629;28;20334;-72
2021/09/15 10:58:22;;;;;;;4.72;2.97;;;;;;;33.15;52.27;97782.78;5059763;28;20221;-76
2021/09/15 11:00:51;;;;;;;7.85;3.03;;;;;;;33.77;52.93;97782.94;5052872;28;20716;-71
2021/09/15 11:03:40;;;;;;;5.93;2.97;;;;;;;34.75;49.14;97788.13;5053546;28;20226;-73
2021/09/15 11:06:21;;;;;;;5.85;2.90;;;;;;;34.36;48.89;97805.88;5058417;28;20223;-72
2021/09/15 11:08:49;;;;;;;3.95;3.00;;;;;;;35.31;47.79;97796.91;5053664;28;20663;-73
2021/09/15 11:11:51;;;;;;;3.38;2.70;;;;;;;33.55;53.25;97764.97;5043527;28;20213;-74
2021/09/15 11:14:19;;;;;;;6.28;3.33;;;;;;;35.37;48.85;97776.84;5047268;28;20233;-72
2021/09/15 11:16:47;;;;;;;5.10;3.20;;;;;;;33.92;52.73;97790.47;5052989;28;20206;-74
2021/09/15 11:19:16;;;;;;;4.45;3.40;;;;;;;35.77;48.29;97785.56;5053183;28;20206;-72
2021/09/15 11:21:47;;;;;;;3.60;2.70;;;;;;;34.96;48.94;97777.56;5053379;28;20239;-73
2021/09/15 11:24:20;;;;;;;5.05;3.25;;;;;;;36.10;46.29;97787.69;5049035;28;20229;-72
2021/09/15 11:26:52;;;;;;;4.38;3.03;;;;;;;36.35;44.51;97789.72;5053441;28;20194;-72
2021/09/15 11:29:39;;;;;;;3.53;2.95;;;;;;;35.58;47.05;97790.31;5059337;28;20206;-73
2021/09/15 11:32:08;;;;;;;4.25;3.13;;;;;;;35.76;46.69;97785.91;5050826;28;20208;-74
2021/09/15 11:34:39;;;;;;;4.88;2.90;;;;;;;35.87;44.79;97796.03;5053111;28;20230;-74
2021/09/15 11:37:14;;;;;;;5.70;3.22;;;;;;;36.24;43.80;97780.41;5051885;28;20737;-73
2021/09/15 11:39:41;;;;;;;4.82;2.70;;;;;;;35.18;46.06;97777.59;5062117;28;20204;-73
2021/09/15 11:42:10;;;;;;;4.15;2.80;;;;;;;36.11;44.51;97778.19;5059017;28;20202;-73
2021/09/15 11:44:37;;;;;;;4.40;3.00;;;;;;;35.23;47.18;97770.97;5052922;28;20222;-73
2021/09/15 11:47:04;;;;;;;5.35;3.40;;;;;;;35.70;46.19;97765.16;5051792;28;20198;-73